Time;durP1;ratioP1;P1;durP2;ratioP2;P2;SDS_P1;SDS_P2;PMS_P1;PMS_P2;Temp;Humidity;BMP_temperature;BMP_pressure;BME280_temperature;BME280_humidity;BME280_pressure;Samples;Min_cycle;Max_cycle;Signal;HPM_P1;HPM_P2
2021/01/22 00:02:13;;;;;;;1.22;0.90;;;;;;;9.01;100.00;96095.95;3562889;82;43592;-20
2021/01/22 00:07:20;;;;;;;1.25;0.90;;;;;;;8.97;100.00;96102.27;3603512;82;43721;-20
2021/01/22 00:12:25;;;;;;;0.85;0.60;;;;;;;8.99;100.00;96116.84;3603150;82;44097;-20
2021/01/22 00:17:31;;;;;;;1.00;0.70;;;;;;;9.00;100.00;96126.52;3636424;81;43166;-21
2021/01/22 00:22:38;;;;;;;0.93;0.70;;;;;;;8.88;100.00;96135.20;3603246;82;44930;-21
2021/01/22 00:27:43;;;;;;;0.87;0.70;;;;;;;8.75;100.00;96105.17;3594946;82;44106;-18
2021/01/22 00:32:49;;;;;;;1.00;0.90;;;;;;;8.75;100.00;96112.42;3596616;81;73131;-18
2021/01/22 00:37:55;;;;;;;1.80;0.80;;;;;;;8.66;100.00;96076.06;3592797;82;43719;-19
2021/01/22 00:43:01;;;;;;;0.70;0.70;;;;;;;8.51;100.00;96060.17;3599079;82;43387;-18
2021/01/22 00:48:08;;;;;;;3.90;1.22;;;;;;;8.43;100.00;96073.23;3558728;81;42968;-19
2021/01/22 00:53:14;;;;;;;1.23;0.60;;;;;;;8.41;100.00;96067.28;3601929;82;43354;-19
2021/01/22 00:58:20;;;;;;;0.60;0.60;;;;;;;8.34;100.00;96061.91;3602357;82;43749;-19
2021/01/22 01:03:28;;;;;;;0.60;0.57;;;;;;;8.31;100.00;96063.13;3642843;81;26424;-19
2021/01/22 01:08:34;;;;;;;0.70;0.60;;;;;;;8.35;100.00;96060.04;3635970;81;43490;-19
2021/01/22 01:13:42;;;;;;;1.00;0.70;;;;;;;8.26;100.00;96040.13;3670401;80;26384;-19
2021/01/22 01:18:55;;;;;;;0.80;0.60;;;;;;;8.22;100.00;96023.31;3663945;79;26443;-19
2021/01/22 01:24:01;;;;;;;0.90;0.70;;;;;;;8.13;100.00;96007.94;3648906;81;74524;-19
2021/01/22 01:29:07;;;;;;;1.50;0.83;;;;;;;7.98;100.00;95991.52;3671200;81;43468;-19
2021/01/22 01:34:13;;;;;;;2.25;0.90;;;;;;;7.95;100.00;95971.81;3660715;81;44050;-19
2021/01/22 01:39:19;;;;;;;1.72;0.95;;;;;;;7.85;100.00;95968.72;3640169;81;43289;-19
2021/01/22 01:44:25;;;;;;;1.20;1.00;;;;;;;7.82;100.00;95958.43;3635883;81;44664;-19
2021/01/22 01:49:31;;;;;;;1.40;1.10;;;;;;;7.70;100.00;95963.55;3667673;81;44094;-18
2021/01/22 01:54:37;;;;;;;1.63;1.40;;;;;;;7.61;100.00;95946.84;3673766;79;44059;-19
2021/01/22 01:59:44;;;;;;;2.10;1.30;;;;;;;7.50;100.00;95955.47;3670831;81;43059;-19
2021/01/22 02:04:50;;;;;;;2.27;1.20;;;;;;;7.48;100.00;95941.45;3629236;81;43387;-19
2021/01/22 02:09:57;;;;;;;1.93;1.17;;;;;;;7.44;100.00;95937.02;3632454;81;43436;-19
2021/01/22 02:15:04;;;;;;;1.87;1.30;;;;;;;7.51;100.00;95929.84;3671396;81;43478;-19
2021/01/22 02:20:19;;;;;;;1.65;1.10;;;;;;;7.48;100.00;95913.32;3639654;81;43332;-20
2021/01/22 02:25:28;;;;;;;1.30;1.10;;;;;;;7.48;100.00;95898.09;3663905;79;44127;-20
2021/01/22 02:30:34;;;;;;;1.93;1.30;;;;;;;7.44;100.00;95905.41;3653516;81;44067;-20
2021/01/22 02:35:42;;;;;;;1.63;1.10;;;;;;;7.45;100.00;95900.36;3670545;81;44046;-20
2021/01/22 02:40:50;;;;;;;3.40;1.37;;;;;;;7.44;100.00;95896.84;3653028;81;44021;-20
2021/01/22 02:45:57;;;;;;;1.43;1.20;;;;;;;7.37;100.00;95903.52;3670864;81;43570;-19
2021/01/22 02:51:10;;;;;;;1.90;1.10;;;;;;;7.44;100.00;95885.31;3652705;81;43710;-20
2021/01/22 02:56:21;;;;;;;1.72;1.10;;;;;;;7.46;100.00;95883.27;3655610;79;43388;-20
2021/01/22 03:01:28;;;;;;;1.40;0.90;;;;;;;7.50;100.00;95887.16;3625041;81;44083;-20
2021/01/22 03:06:37;;;;;;;1.40;1.10;;;;;;;7.48;100.00;95882.02;3642550;81;44035;-20
2021/01/22 03:11:47;;;;;;;10.50;1.80;;;;;;;7.63;100.00;95873.78;3624420;81;43722;-20
2021/01/22 03:16:52;;;;;;;1.00;0.90;;;;;;;7.62;100.00;95873.47;3637275;81;44113;-20
2021/01/22 03:21:59;;;;;;;1.10;1.00;;;;;;;7.55;100.00;95869.97;3609575;81;43726;-20
2021/01/22 03:27:06;;;;;;;0.97;0.87;;;;;;;7.56;100.00;95863.59;3640636;80;73291;-20
2021/01/22 03:32:12;;;;;;;1.10;0.87;;;;;;;7.53;100.00;95858.11;3640634;81;74086;-20
2021/01/22 03:37:18;;;;;;;1.70;1.00;;;;;;;7.59;100.00;95865.02;3640884;81;43759;-19
2021/01/22 03:42:23;;;;;;;0.70;0.70;;;;;;;7.65;100.00;95869.55;3617577;81;43460;-19
2021/01/22 03:47:29;;;;;;;0.80;0.70;;;;;;;7.83;100.00;95872.95;3596766;81;43664;-19
2021/01/22 03:52:36;;;;;;;2.05;0.80;;;;;;;7.90;100.00;95871.60;3626210;81;44090;-19
2021/01/22 03:57:42;;;;;;;0.82;0.75;;;;;;;8.04;100.00;95861.18;3634760;81;42844;-19
2021/01/22 04:02:48;;;;;;;1.00;0.70;;;;;;;8.14;100.00;95844.67;3670502;79;44061;-19
2021/01/22 04:07:54;;;;;;;1.67;0.75;;;;;;;8.27;98.49;95829.89;3658151;81;43319;-19
2021/01/22 04:13:00;;;;;;;0.80;0.67;;;;;;;8.31;98.50;95829.77;3630646;81;42896;-18
2021/01/22 04:18:06;;;;;;;1.12;0.80;;;;;;;8.40;96.92;95813.45;3623993;81;43677;-19
2021/01/22 04:23:12;;;;;;;1.60;0.77;;;;;;;8.47;95.86;95816.42;3672285;81;43689;-18
2021/01/22 04:28:18;;;;;;;1.22;0.65;;;;;;;8.43;97.81;95799.59;3640853;81;44196;-18
2021/01/22 04:33:24;;;;;;;1.00;0.70;;;;;;;8.30;99.45;95789.22;3665666;79;44190;-17
2021/01/22 04:38:31;;;;;;;1.50;0.90;;;;;;;8.28;98.57;95785.95;3661784;81;43748;-18
2021/01/22 04:43:44;;;;;;;1.67;0.90;;;;;;;8.27;98.23;95803.08;3664434;81;43398;-18
2021/01/22 04:48:45;;;;;;;2.30;1.10;;;;;;;8.29;98.76;95791.59;3611182;82;44070;-18
2021/01/22 04:53:54;;;;;;;1.50;0.80;;;;;;;8.33;97.05;95783.44;3665271;81;44638;-18
2021/01/22 04:59:03;;;;;;;0.98;0.60;;;;;;;8.32;99.74;95791.17;3664273;80;43711;-18
2021/01/22 05:04:10;;;;;;;1.07;0.77;;;;;;;8.22;100.00;95780.08;3626271;81;44055;-18
2021/01/22 05:09:17;;;;;;;1.53;0.83;;;;;;;8.16;100.00;95775.58;3648286;81;44521;-17
2021/01/22 05:14:23;;;;;;;1.35;0.70;;;;;;;8.13;100.00;95771.97;3614715;82;43677;-18
2021/01/22 05:19:29;;;;;;;1.47;0.90;;;;;;;8.18;100.00;95763.59;3594089;82;44087;-18
2021/01/22 05:24:36;;;;;;;1.27;0.93;;;;;;;8.20;100.00;95759.34;3597418;82;43350;-18
2021/01/22 05:29:44;;;;;;;1.37;0.90;;;;;;;8.22;100.00;95753.26;3591031;82;43423;-17
2021/01/22 05:34:51;;;;;;;2.27;0.73;;;;;;;8.23;100.00;95738.81;3611872;82;43384;-18
2021/01/22 05:40:11;;;;;;;1.32;0.85;;;;;;;8.41;97.83;95745.36;3611448;81;44015;-18
2021/01/22 05:45:20;;;;;;;1.53;0.70;;;;;;;8.60;97.32;95747.14;3572684;82;44028;-18
2021/01/22 05:50:26;;;;;;;2.35;0.90;;;;;;;8.63;97.06;95750.74;3585639;82;43971;-19
2021/01/22 05:55:32;;;;;;;1.30;0.90;;;;;;;8.59;97.73;95749.52;3608205;82;43310;-18
2021/01/22 06:00:38;;;;;;;0.85;0.70;;;;;;;8.53;99.25;95760.28;3588929;81;44104;-18
2021/01/22 06:05:53;;;;;;;2.90;1.00;;;;;;;8.44;99.47;95754.30;3664820;81;44220;-18
2021/01/22 06:11:01;;;;;;;1.17;0.90;;;;;;;8.48;98.87;95747.52;3662198;79;43264;-18
2021/01/22 06:16:10;;;;;;;1.50;0.80;;;;;;;8.44;98.54;95746.25;3628457;81;42969;-18
2021/01/22 06:21:18;;;;;;;2.35;0.80;;;;;;;8.56;96.88;95745.91;3637567;81;43741;-18
2021/01/22 06:26:25;;;;;;;2.35;1.05;;;;;;;8.56;95.80;95741.08;3628805;81;44869;-18
2021/01/22 06:31:32;;;;;;;3.27;1.00;;;;;;;8.55;96.77;95748.29;3634245;81;43653;-18
2021/01/22 06:36:40;;;;;;;2.43;0.90;;;;;;;8.61;96.47;95767.57;3656188;81;73229;-18
2021/01/22 06:41:47;;;;;;;1.70;0.77;;;;;;;8.84;95.51;95768.89;3667064;79;43253;-19
2021/01/22 06:46:53;;;;;;;2.20;0.90;;;;;;;8.79;94.22;95783.46;3648566;81;44003;-19
2021/01/22 06:52:13;;;;;;;1.70;0.80;;;;;;;8.78;95.35;95784.00;3623138;81;43626;-19
2021/01/22 06:57:19;;;;;;;1.90;0.90;;;;;;;8.82;93.94;95795.12;3611021;81;44034;-19
2021/01/22 07:02:40;;;;;;;3.77;0.80;;;;;;;8.83;94.60;95793.25;3637234;81;44474;-19
2021/01/22 07:07:47;;;;;;;2.30;1.00;;;;;;;8.79;94.13;95794.20;3668098;81;43369;-19
2021/01/22 07:12:54;;;;;;;1.43;0.90;;;;;;;8.82;92.86;95785.72;3677691;79;43381;-19
2021/01/22 07:18:02;;;;;;;1.83;0.87;;;;;;;8.83;92.75;95799.45;3718481;79;44043;-19
2021/01/22 07:23:09;;;;;;;2.47;1.12;;;;;;;8.83;92.08;95804.82;3667892;81;44133;-18
2021/01/22 07:28:24;;;;;;;2.72;1.00;;;;;;;8.86;90.42;95807.59;3656162;81;44039;-19
2021/01/22 07:33:40;;;;;;;2.50;0.80;;;;;;;8.78;92.14;95818.05;3659331;81;43420;-26
2021/01/22 07:38:47;;;;;;;2.58;0.80;;;;;;;8.99;90.23;95816.11;3605525;82;44065;-19
2021/01/22 07:44:01;;;;;;;3.17;0.90;;;;;;;9.00;90.24;95819.06;3663650;81;43452;-18
2021/01/22 07:49:09;;;;;;;2.10;0.80;;;;;;;8.96;92.00;95820.55;3646352;79;44058;-18
2021/01/22 07:54:17;;;;;;;3.27;1.60;;;;;;;8.86;92.54;95827.22;3666284;81;43721;-18
2021/01/22 07:59:26;;;;;;;2.75;0.90;;;;;;;8.87;92.98;95816.78;3666136;81;44052;-18
2021/01/22 08:04:33;;;;;;;2.83;0.90;;;;;;;8.83;91.97;95815.56;3667931;81;44040;-18
2021/01/22 08:09:53;;;;;;;1.55;1.10;;;;;;;8.79;92.94;95821.04;3665862;79;43372;-18
2021/01/22 08:15:00;;;;;;;1.77;0.90;;;;;;;8.83;93.23;95814.72;3666614;81;43722;-18
2021/01/22 08:20:10;;;;;;;1.42;0.82;;;;;;;8.88;94.12;95832.36;3641793;79;43343;-18
2021/01/22 08:25:17;;;;;;;1.70;0.90;;;;;;;8.81;92.94;95847.69;3665958;81;43474;-18
2021/01/22 08:30:28;;;;;;;1.50;0.80;;;;;;;8.76;93.93;95829.01;3648733;81;44020;-18
2021/01/22 08:35:34;;;;;;;3.30;0.97;;;;;;;8.77;94.13;95833.84;3649280;81;73268;-18
2021/01/22 08:40:43;;;;;;;2.60;1.20;;;;;;;8.78;95.43;95850.26;3665644;81;73555;-18
2021/01/22 08:46:06;;;;;;;3.47;1.00;;;;;;;8.79;94.84;95823.72;3665907;81;43437;-18
2021/01/22 08:51:14;;;;;;;2.52;0.68;;;;;;;8.91;95.63;95848.86;3666441;79;43084;-19
2021/01/22 08:56:22;;;;;;;2.22;1.00;;;;;;;8.94;93.76;95853.81;3648772;81;44107;-18
2021/01/22 09:01:56;;;;;;;2.33;0.90;;;;;;;9.01;94.35;95875.76;3666466;81;43368;-19
2021/01/22 09:07:04;;;;;;;1.85;0.70;;;;;;;9.01;92.32;95874.42;3644512;81;44049;-19
2021/01/22 09:12:17;;;;;;;2.13;0.80;;;;;;;9.02;92.84;95885.47;3637559;81;74259;-19
2021/01/22 09:17:44;;;;;;;0.90;0.50;;;;;;;8.88;95.12;95918.27;3648381;81;43960;-19
2021/01/22 09:22:52;;;;;;;0.40;0.40;;;;;;;7.95;100.00;95934.81;3659106;79;43443;-17
2021/01/22 09:27:59;;;;;;;1.32;0.40;;;;;;;7.36;100.00;95954.09;3628678;81;43064;-17
2021/01/22 09:33:05;;;;;;;0.42;0.30;;;;;;;6.98;100.00;95972.50;3661879;81;44027;-19
2021/01/22 09:38:10;;;;;;;0.50;0.40;;;;;;;6.58;100.00;96003.39;3653997;81;43431;-20
2021/01/22 09:43:18;;;;;;;0.30;0.30;;;;;;;6.13;100.00;96002.33;3647098;81;44051;-20
2021/01/22 09:48:25;;;;;;;0.30;0.30;;;;;;;5.91;100.00;96006.83;3645807;81;44132;-20
2021/01/22 09:53:31;;;;;;;0.37;0.37;;;;;;;5.72;100.00;96012.29;3654875;79;44445;-20
2021/01/22 09:58:37;;;;;;;0.30;0.30;;;;;;;5.64;100.00;96020.44;3623937;81;44070;-19
2021/01/22 10:03:43;;;;;;;0.47;0.30;;;;;;;5.53;100.00;96019.07;3653013;81;43720;-18
2021/01/22 10:08:49;;;;;;;0.60;0.40;;;;;;;5.47;100.00;96021.98;3603140;82;43667;-18
2021/01/22 10:13:56;;;;;;;0.33;0.33;;;;;;;5.50;100.00;96018.95;3604237;82;43980;-21
2021/01/22 10:19:02;;;;;;;0.60;0.53;;;;;;;5.50;100.00;96017.62;3614503;82;43471;-21
2021/01/22 10:24:09;;;;;;;0.60;0.60;;;;;;;5.49;100.00;96021.30;3576837;82;43034;-21
2021/01/22 10:29:15;;;;;;;1.20;0.60;;;;;;;5.48;100.00;96032.17;3584243;81;43441;-21
2021/01/22 10:34:21;;;;;;;0.90;0.80;;;;;;;5.45;100.00;96029.39;3608730;82;43717;-21
2021/01/22 10:39:27;;;;;;;0.70;0.70;;;;;;;5.04;100.00;96044.58;3590584;82;43468;-21
2021/01/22 10:44:33;;;;;;;0.50;0.50;;;;;;;4.81;100.00;96050.84;3600517;82;43355;-21
2021/01/22 10:49:39;;;;;;;0.30;0.30;;;;;;;4.66;100.00;96047.33;3613790;82;44076;-21
2021/01/22 10:54:45;;;;;;;0.30;0.30;;;;;;;4.55;100.00;96049.44;3581785;82;44090;-18
2021/01/22 10:59:51;;;;;;;0.43;0.40;;;;;;;4.43;100.00;96049.55;3588110;81;44039;-19
2021/01/22 11:04:57;;;;;;;0.30;0.30;;;;;;;4.39;100.00;96054.94;3582569;81;42942;-19
2021/01/22 11:10:06;;;;;;;0.40;0.40;;;;;;;4.28;100.00;96054.38;3609457;81;44065;-19
2021/01/22 11:15:13;;;;;;;0.47;0.40;;;;;;;4.32;100.00;96048.98;3598530;81;43385;-19
2021/01/22 11:20:21;;;;;;;0.90;0.57;;;;;;;4.35;100.00;96049.64;3610850;81;44449;-19
2021/01/22 11:25:27;;;;;;;0.40;0.40;;;;;;;4.34;100.00;96039.50;3601769;81;44014;-19
2021/01/22 11:30:34;;;;;;;0.40;0.40;;;;;;;4.38;100.00;96047.95;3610715;80;43681;-19
2021/01/22 11:35:41;;;;;;;0.50;0.40;;;;;;;4.35;100.00;96046.45;3601142;81;43379;-19
2021/01/22 11:40:49;;;;;;;1.30;0.83;;;;;;;4.33;100.00;96065.82;3614270;81;44087;-19
2021/01/22 11:45:56;;;;;;;0.97;0.60;;;;;;;4.24;100.00;96073.05;3598769;81;44144;-20
2021/01/22 11:51:01;;;;;;;0.50;0.50;;;;;;;4.21;100.00;96064.08;3588987;81;44061;-19
2021/01/22 11:56:08;;;;;;;0.60;0.53;;;;;;;4.21;100.00;96077.40;3501085;83;43773;-21
2021/01/22 12:01:14;;;;;;;0.50;0.40;;;;;;;4.12;100.00;96070.48;3634650;81;44556;-20
2021/01/22 12:06:20;;;;;;;0.53;0.50;;;;;;;4.08;100.00;96078.50;3614112;80;42860;-27
2021/01/22 12:16:33;;;;;;;2.87;0.57;;;;;;;4.01;100.00;96074.38;4034572;72;30432;-20
2021/01/22 12:21:42;;;;;;;0.60;0.60;;;;;;;3.95;100.00;96075.92;3929168;74;43362;-20
2021/01/22 12:26:49;;;;;;;0.70;0.50;;;;;;;3.90;100.00;96086.30;3915802;74;43923;-20
2021/01/22 12:31:57;;;;;;;0.80;0.60;;;;;;;3.87;100.00;96083.98;3954248;73;44038;-20
2021/01/22 12:37:04;;;;;;;0.63;0.60;;;;;;;3.79;100.00;96097.36;3913555;73;43690;-20
2021/01/22 12:42:12;;;;;;;0.60;0.50;;;;;;;3.72;100.00;96094.57;3904255;75;44499;-19
2021/01/22 12:47:19;;;;;;;0.50;0.50;;;;;;;3.64;100.00;96095.44;3932899;73;43358;-20
2021/01/22 12:52:28;;;;;;;0.50;0.50;;;;;;;3.59;100.00;96106.28;3961152;75;43984;-20
2021/01/22 12:57:35;;;;;;;0.73;0.60;;;;;;;3.53;100.00;96106.48;3953412;75;43251;-20
2021/01/22 13:02:40;;;;;;;0.60;0.50;;;;;;;3.45;100.00;96107.86;3929285;75;44422;-21
2021/01/22 13:07:47;;;;;;;0.63;0.60;;;;;;;3.44;100.00;96107.53;3936564;73;44529;-21
2021/01/22 13:12:53;;;;;;;1.80;0.53;;;;;;;3.42;100.00;96114.86;3918976;74;43275;-20
2021/01/22 13:17:59;;;;;;;1.00;0.80;;;;;;;3.38;100.00;96115.70;3914438;74;42719;-21
2021/01/22 13:23:06;;;;;;;1.00;0.50;;;;;;;3.36;100.00;96120.37;3973639;74;43688;-21
2021/01/22 13:28:12;;;;;;;1.60;0.40;;;;;;;3.16;100.00;96141.22;3964088;74;43348;-21
2021/01/22 13:33:18;;;;;;;0.50;0.43;;;;;;;3.06;100.00;96146.24;3950223;74;44104;-21
2021/01/22 13:38:24;;;;;;;1.43;0.40;;;;;;;3.01;100.00;96154.41;3920562;73;44084;-21
2021/01/22 13:43:31;;;;;;;0.60;0.40;;;;;;;2.98;100.00;96158.73;3941092;74;44005;-21
2021/01/22 13:48:37;;;;;;;1.93;0.50;;;;;;;2.91;100.00;96158.56;3924258;74;43399;-21
2021/01/22 13:53:43;;;;;;;0.50;0.40;;;;;;;2.83;100.00;96159.92;3935928;74;44115;-20
2021/01/22 13:58:49;;;;;;;0.57;0.57;;;;;;;2.82;100.00;96170.22;3927872;74;43415;-21
2021/01/22 14:03:55;;;;;;;1.77;0.70;;;;;;;2.83;100.00;96178.53;3953735;74;43162;-21
2021/01/22 14:09:01;;;;;;;0.67;0.60;;;;;;;2.81;100.00;96181.38;3952058;74;44180;-21
2021/01/22 14:14:06;;;;;;;2.53;0.83;;;;;;;2.76;100.00;96177.86;3927078;73;44672;-21
2021/01/22 14:19:12;;;;;;;0.80;0.70;;;;;;;2.74;100.00;96185.20;3950561;74;44135;-21
2021/01/22 14:24:18;;;;;;;1.03;0.80;;;;;;;2.73;100.00;96202.14;3946247;74;43000;-20
2021/01/22 14:29:24;;;;;;;1.90;0.70;;;;;;;2.77;100.00;96199.98;3968135;74;44086;-21
2021/01/22 14:34:29;;;;;;;1.50;0.70;;;;;;;2.78;100.00;96193.66;3939356;74;43324;-21
2021/01/22 14:39:35;;;;;;;0.70;0.60;;;;;;;2.76;100.00;96216.41;3937415;74;44128;-21
2021/01/22 14:44:41;;;;;;;1.00;0.70;;;;;;;2.79;100.00;96212.61;3932024;73;43005;-21
2021/01/22 14:49:47;;;;;;;2.37;0.90;;;;;;;2.80;100.00;96216.09;3957033;74;44074;-22
2021/01/22 14:54:54;;;;;;;3.20;1.90;;;;;;;2.84;100.00;96222.74;3936635;74;43689;-21
2021/01/22 15:00:00;;;;;;;2.53;1.40;;;;;;;2.87;100.00;96230.39;3939663;74;43677;-21
2021/01/22 15:05:09;;;;;;;2.47;1.70;;;;;;;2.87;100.00;96233.88;3904732;74;43246;-21
2021/01/22 15:10:15;;;;;;;3.80;2.80;;;;;;;2.86;100.00;96235.37;3970262;73;42992;-21
2021/01/22 15:15:22;;;;;;;5.90;3.20;;;;;;;2.88;100.00;96230.73;3935800;73;44454;-21
2021/01/22 15:20:28;;;;;;;4.23;3.50;;;;;;;2.90;100.00;96225.56;3945464;74;43399;-21
2021/01/22 15:25:34;;;;;;;6.07;4.50;;;;;;;2.95;100.00;96229.05;3973478;74;44779;-21
2021/01/22 15:30:41;;;;;;;1.90;1.70;;;;;;;3.00;100.00;96244.50;3935259;74;44079;-21
2021/01/22 15:35:48;;;;;;;1.60;1.43;;;;;;;2.99;100.00;96246.83;3935794;74;43332;-22
2021/01/22 15:40:54;;;;;;;2.20;1.50;;;;;;;3.00;100.00;96249.83;3921812;74;43326;-22
2021/01/22 15:46:02;;;;;;;5.37;2.20;;;;;;;3.02;100.00;96252.64;3938842;74;43354;-23
2021/01/22 15:51:08;;;;;;;3.60;2.63;;;;;;;2.96;100.00;96262.62;3912686;73;44030;-20
2021/01/22 15:56:14;;;;;;;2.80;2.30;;;;;;;3.00;100.00;96279.08;3934925;74;43115;-21
2021/01/22 16:01:20;;;;;;;4.50;2.80;;;;;;;3.00;100.00;96274.58;3948007;74;43726;-21
2021/01/22 16:06:25;;;;;;;5.77;3.70;;;;;;;2.95;100.00;96271.60;3919072;74;44907;-21
2021/01/22 16:11:31;;;;;;;7.13;4.87;;;;;;;2.87;100.00;96276.42;3957795;74;44473;-22
2021/01/22 16:16:42;;;;;;;7.37;5.17;;;;;;;2.91;100.00;96280.90;3935234;74;44087;-21
2021/01/22 16:21:48;;;;;;;6.67;4.90;;;;;;;2.85;100.00;96280.25;3961201;73;44088;-21
2021/01/22 16:26:54;;;;;;;7.67;5.27;;;;;;;2.81;100.00;96287.73;3956512;74;44740;-19
2021/01/22 16:32:02;;;;;;;8.30;5.77;;;;;;;2.72;100.00;96293.53;3924414;74;43627;-22
2021/01/22 16:37:08;;;;;;;9.20;6.10;;;;;;;2.66;100.00;96296.02;3958325;74;44070;-21
2021/01/22 16:42:14;;;;;;;7.77;5.70;;;;;;;2.65;100.00;96300.48;3943047;74;43354;-21
2021/01/22 16:47:20;;;;;;;8.03;5.50;;;;;;;2.56;100.00;96298.33;3931259;74;44094;-20
2021/01/22 16:52:26;;;;;;;9.70;5.97;;;;;;;2.58;100.00;96298.16;3945842;73;43654;-21
2021/01/22 16:57:32;;;;;;;7.73;5.40;;;;;;;2.56;100.00;96312.10;3963329;74;44209;-21
2021/01/22 17:02:38;;;;;;;7.93;5.93;;;;;;;2.54;100.00;96314.94;3925959;74;42612;-21
2021/01/22 17:07:44;;;;;;;9.90;6.00;;;;;;;2.54;100.00;96304.78;3934180;74;43362;-20
2021/01/22 17:12:52;;;;;;;9.67;6.20;;;;;;;2.58;100.00;96299.00;3928442;74;44062;-20
2021/01/22 17:17:58;;;;;;;7.30;5.40;;;;;;;2.60;100.00;96302.30;3894923;74;43677;-20
2021/01/22 17:23:04;;;;;;;8.90;5.40;;;;;;;2.55;100.00;96315.75;3909361;74;43311;-18
2021/01/22 17:28:10;;;;;;;7.80;5.50;;;;;;;2.57;100.00;96333.22;3873709;75;44506;-20
2021/01/22 17:33:15;;;;;;;5.70;4.17;;;;;;;2.54;100.00;96332.69;3866244;75;44104;-21
2021/01/22 17:38:22;;;;;;;6.70;4.23;;;;;;;2.55;100.00;96353.81;3882302;74;43456;-21
2021/01/22 17:43:27;;;;;;;5.80;4.10;;;;;;;2.54;100.00;96351.30;3913400;75;43485;-20
2021/01/22 17:48:33;;;;;;;4.20;3.40;;;;;;;2.53;100.00;96348.33;3872244;75;43799;-19
2021/01/22 17:53:39;;;;;;;7.07;4.13;;;;;;;2.55;100.00;96368.91;3900081;75;44075;-20
2021/01/22 17:58:45;;;;;;;6.97;4.30;;;;;;;2.53;100.00;96380.23;3895977;74;43718;-20
2021/01/22 18:03:52;;;;;;;6.33;4.30;;;;;;;2.50;100.00;96396.48;3898170;74;44474;-20
2021/01/22 18:08:58;;;;;;;6.30;4.20;;;;;;;2.41;100.00;96404.91;3872652;75;43428;-20
2021/01/22 18:14:03;;;;;;;7.23;4.10;;;;;;;2.37;100.00;96412.86;3904673;75;44084;-20
2021/01/22 18:19:11;;;;;;;7.63;5.23;;;;;;;2.39;100.00;96401.58;3955481;74;44015;-20
2021/01/22 18:24:17;;;;;;;9.53;5.43;;;;;;;2.31;100.00;96406.36;3943531;74;43445;-20
2021/01/22 18:29:23;;;;;;;9.33;5.80;;;;;;;2.20;100.00;96414.61;3943814;73;44076;-20
2021/01/22 18:34:29;;;;;;;8.50;5.43;;;;;;;2.18;100.00;96410.80;3941316;74;43716;-20
2021/01/22 18:39:35;;;;;;;7.90;5.13;;;;;;;2.15;100.00;96414.61;3947902;74;43469;-20
2021/01/22 18:44:41;;;;;;;9.73;6.07;;;;;;;2.12;100.00;96404.77;3865468;74;44920;-19
2021/01/22 18:49:47;;;;;;;15.07;8.20;;;;;;;2.07;100.00;96402.59;3657684;79;43314;-20
2021/01/22 18:54:52;;;;;;;12.37;7.00;;;;;;;2.02;100.00;96400.92;3674585;79;43355;-19
2021/01/22 18:59:59;;;;;;;14.80;8.13;;;;;;;2.02;100.00;96402.73;3659901;79;43694;-19
2021/01/22 19:05:07;;;;;;;16.97;9.47;;;;;;;1.97;100.00;96408.52;3663331;80;43399;-19
2021/01/22 19:10:16;;;;;;;14.63;8.23;;;;;;;1.98;100.00;96402.22;3670660;79;44114;-19
2021/01/22 19:15:23;;;;;;;15.33;8.77;;;;;;;1.99;100.00;96397.24;3666988;80;43387;-20
2021/01/22 19:20:29;;;;;;;17.03;9.13;;;;;;;2.01;100.00;96408.55;3665812;79;43712;-21
2021/01/22 19:25:35;;;;;;;18.43;10.37;;;;;;;2.02;100.00;96422.64;3672482;78;43999;-20
2021/01/22 19:30:42;;;;;;;22.60;10.40;;;;;;;1.99;100.00;96398.57;3671088;80;44726;-21
2021/01/22 19:35:48;;;;;;;19.50;10.60;;;;;;;1.98;100.00;96392.44;3645777;78;43548;-21
2021/01/22 19:40:54;;;;;;;21.77;11.63;;;;;;;1.95;100.00;96398.53;3673787;78;43449;-21
2021/01/22 19:46:00;;;;;;;20.10;11.00;;;;;;;2.04;100.00;96396.77;3668504;80;43282;-22
2021/01/22 19:51:07;;;;;;;17.47;10.23;;;;;;;2.02;100.00;96400.92;3675390;79;43510;-21
2021/01/22 19:56:14;;;;;;;20.93;11.03;;;;;;;2.05;100.00;96403.27;3665205;80;42953;-21
2021/01/22 20:01:20;;;;;;;19.00;11.10;;;;;;;2.03;100.00;96402.59;3663004;80;44054;-21
2021/01/22 20:06:26;;;;;;;19.13;10.70;;;;;;;2.03;100.00;96389.31;3652898;79;43598;-21
2021/01/22 20:11:32;;;;;;;16.80;10.27;;;;;;;1.97;100.00;96374.84;3610370;81;44080;-21
2021/01/22 20:16:37;;;;;;;19.87;11.03;;;;;;;1.99;100.00;96357.41;3586905;81;44021;-21
2021/01/22 20:21:43;;;;;;;21.20;11.73;;;;;;;2.00;100.00;96344.47;3652642;78;43632;-21
2021/01/22 20:26:49;;;;;;;19.30;11.23;;;;;;;1.90;100.00;96346.41;3625631;81;42769;-20
2021/01/22 20:31:55;;;;;;;21.73;11.17;;;;;;;1.93;100.00;96351.41;3651034;80;44073;-21
2021/01/22 20:37:02;;;;;;;18.87;10.83;;;;;;;1.98;100.00;96341.98;3649801;79;43714;-21
2021/01/22 20:42:08;;;;;;;19.93;11.87;;;;;;;2.03;100.00;96357.44;3661332;80;43987;-21
2021/01/22 20:47:14;;;;;;;19.50;11.00;;;;;;;1.99;100.00;96352.09;3613375;80;44050;-21
2021/01/22 20:52:20;;;;;;;20.50;11.80;;;;;;;1.97;100.00;96345.62;3644519;80;43690;-21
2021/01/22 20:57:26;;;;;;;23.77;12.93;;;;;;;1.93;100.00;96345.59;3651148;81;44395;-21
2021/01/22 21:02:33;;;;;;;19.43;11.17;;;;;;;1.93;100.00;96340.80;3662453;80;44049;-21
2021/01/22 21:07:39;;;;;;;20.57;11.77;;;;;;;1.95;100.00;96332.15;3636507;81;43021;-21
2021/01/22 21:12:47;;;;;;;25.53;13.20;;;;;;;1.96;100.00;96317.41;3669893;78;43705;-21
2021/01/22 21:17:53;;;;;;;20.73;12.67;;;;;;;1.96;100.00;96327.17;3651685;80;43443;-21
2021/01/22 21:23:01;;;;;;;21.60;12.07;;;;;;;1.99;100.00;96313.11;3634607;80;43392;-21
2021/01/22 21:28:07;;;;;;;22.97;11.83;;;;;;;1.98;100.00;96318.56;3644488;80;43718;-21
2021/01/22 21:33:14;;;;;;;23.33;12.33;;;;;;;1.99;100.00;96318.91;3670956;80;43341;-21
2021/01/22 21:38:20;;;;;;;24.67;13.43;;;;;;;2.03;100.00;96315.42;3638892;80;43404;-21
2021/01/22 21:43:26;;;;;;;23.13;12.77;;;;;;;2.01;100.00;96316.92;3655705;79;43539;-21
2021/01/22 21:48:32;;;;;;;22.20;12.93;;;;;;;2.04;100.00;96305.99;3639677;81;43456;-21
2021/01/22 21:53:37;;;;;;;18.97;11.13;;;;;;;1.93;100.00;96304.95;3683309;80;44074;-21
2021/01/22 21:58:43;;;;;;;17.83;10.67;;;;;;;1.88;100.00;96296.14;3640764;81;44455;-21
2021/01/22 22:03:49;;;;;;;19.03;10.80;;;;;;;1.92;100.00;96292.16;3683873;80;44066;-21
2021/01/22 22:08:55;;;;;;;23.13;12.47;;;;;;;1.96;100.00;96288.67;3641041;80;44528;-21
2021/01/22 22:14:01;;;;;;;22.47;13.10;;;;;;;2.02;100.00;96283.22;3681349;79;42946;-20
2021/01/22 22:19:07;;;;;;;23.80;14.07;;;;;;;2.00;100.00;96276.75;3642905;79;43384;-21
2021/01/22 22:24:13;;;;;;;26.07;13.87;;;;;;;2.00;100.00;96275.42;3674740;78;44087;-20
2021/01/22 22:29:19;;;;;;;25.47;15.30;;;;;;;2.06;100.00;96289.37;3652379;81;44520;-21
2021/01/22 22:34:25;;;;;;;30.43;17.13;;;;;;;2.08;100.00;96287.39;3619179;80;44084;-21
2021/01/22 22:39:31;;;;;;;27.50;16.77;;;;;;;2.07;100.00;96291.55;3620522;81;44061;-21
2021/01/22 22:44:36;;;;;;;23.90;13.60;;;;;;;2.08;100.00;96292.70;3622993;79;44458;-20
2021/01/22 22:49:43;;;;;;;27.90;15.00;;;;;;;1.97;100.00;96294.33;3647962;80;44825;-21
2021/01/22 22:54:49;;;;;;;24.97;13.90;;;;;;;1.91;100.00;96296.31;3682532;80;43378;-20
2021/01/22 22:59:55;;;;;;;24.67;13.50;;;;;;;1.91;100.00;96300.29;3649285;80;44589;-20
2021/01/22 23:05:02;;;;;;;28.13;14.57;;;;;;;1.90;100.00;96311.90;3653200;80;43428;-21
2021/01/22 23:10:10;;;;;;;27.00;14.53;;;;;;;1.83;100.00;96319.16;3633128;80;43718;-21
2021/01/22 23:15:16;;;;;;;26.00;13.43;;;;;;;1.80;100.00;96324.80;3677660;80;43666;-21
2021/01/22 23:20:22;;;;;;;26.37;14.83;;;;;;;1.78;100.00;96333.41;3650594;79;43672;-20
2021/01/22 23:25:28;;;;;;;25.87;14.33;;;;;;;1.79;100.00;96342.20;3684802;78;43428;-21
2021/01/22 23:30:34;;;;;;;25.10;13.87;;;;;;;1.81;100.00;96333.11;3647373;79;44439;-21
2021/01/22 23:35:40;;;;;;;22.20;12.63;;;;;;;1.76;100.00;96330.08;3665346;81;43735;-21
2021/01/22 23:40:46;;;;;;;18.30;10.57;;;;;;;1.79;100.00;96332.42;3682226;79;44052;-21
2021/01/22 23:45:52;;;;;;;21.90;12.57;;;;;;;1.83;100.00;96340.91;3665508;79;42869;-21
2021/01/22 23:50:58;;;;;;;22.47;12.27;;;;;;;1.82;100.00;96357.81;3682192;79;44197;-20
2021/01/22 23:56:04;;;;;;;22.83;13.00;;;;;;;1.86;100.00;96361.83;3685358;79;44038;-20
